createdAt,value
2022-12-04T00:01:15.633Z,36.50
2022-12-04T00:06:55.509Z,42.00
2022-12-04T00:09:41.203Z,38.33
2022-12-04T00:15:25.318Z,41.33
2022-12-04T00:20:52.392Z,39.43
2022-12-04T00:26:33.497Z,40.83
2022-12-04T00:29:22.155Z,45.77
2022-12-04T00:34:59.715Z,44.07
2022-12-04T00:40:35.625Z,45.43
2022-12-04T00:48:48.215Z,44.27
2022-12-04T00:54:18.211Z,46.27
2022-12-04T00:59:47.969Z,44.60
2022-12-04T01:02:56.006Z,45.43
2022-12-04T01:08:35.104Z,47.43
2022-12-04T01:14:02.708Z,48.03
2022-12-04T01:19:40.098Z,45.77
2022-12-04T01:22:28.548Z,51.43
2022-12-04T01:28:04.523Z,53.17
2022-12-04T01:31:04.261Z,46.17
2022-12-04T01:36:57.300Z,52.90
2022-12-04T01:42:30.287Z,52.77
2022-12-04T01:45:39.503Z,48.53
2022-12-04T01:51:18.538Z,54.17
2022-12-04T01:56:54.360Z,55.60
2022-12-04T02:02:26.670Z,49.50
2022-12-04T02:05:17.509Z,52.67
2022-12-04T02:11:05.979Z,52.13
2022-12-04T02:16:45.704Z,52.30
2022-12-04T02:23:14.200Z,49.50
2022-12-04T02:31:37.132Z,51.13
2022-12-04T02:37:10.344Z,54.80
2022-12-04T02:45:39.579Z,54.80
2022-12-04T02:54:02.215Z,53.93
2022-12-04T02:59:39.640Z,52.47
2022-12-04T03:08:29.536Z,49.17
2022-12-04T03:14:07.872Z,56.23
2022-12-04T03:19:58.272Z,54.57
2022-12-04T03:28:20.019Z,53.97
2022-12-04T03:33:59.742Z,53.10
2022-12-04T03:36:52.229Z,58.43
2022-12-04T03:45:23.039Z,53.60
2022-12-04T03:51:17.917Z,54.00
2022-12-04T03:57:01.036Z,53.97
2022-12-04T04:02:42.215Z,51.63
2022-12-04T04:08:27.159Z,49.77
2022-12-04T04:14:16.242Z,51.93
2022-12-04T04:20:19.000Z,50.10
2022-12-04T04:25:55.763Z,49.07
2022-12-04T04:28:47.308Z,49.83
2022-12-04T04:34:27.824Z,52.63
2022-12-04T04:40:00.081Z,48.77
2022-12-04T04:42:50.407Z,47.23
2022-12-04T04:51:12.482Z,50.23
2022-12-04T04:54:04.327Z,50.27
2022-12-04T04:59:41.464Z,46.97
2022-12-04T05:05:11.529Z,48.60
2022-12-04T05:10:48.441Z,44.57
2022-12-04T05:13:39.255Z,44.23
2022-12-04T05:19:36.307Z,47.87
2022-12-04T05:25:07.334Z,47.27
2022-12-04T05:30:43.243Z,49.50
2022-12-04T05:33:31.754Z,49.77
2022-12-04T05:39:01.266Z,45.90
2022-12-04T05:41:49.594Z,45.73
2022-12-04T05:44:37.849Z,50.03
2022-12-04T05:50:09.889Z,45.50
2022-12-04T05:52:58.332Z,48.37
2022-12-04T05:55:48.417Z,45.77
2022-12-04T06:01:26.797Z,46.17
2022-12-04T06:04:16.068Z,46.73
2022-12-04T06:07:05.623Z,43.00
2022-12-04T06:12:40.454Z,46.27
2022-12-04T06:18:09.441Z,48.40
2022-12-04T06:23:39.913Z,47.17
2022-12-04T06:26:28.958Z,47.30
2022-12-04T06:32:01.901Z,51.03
2022-12-04T06:37:54.286Z,47.47
2022-12-04T06:43:31.553Z,43.33
2022-12-04T06:49:03.785Z,38.43
2022-12-04T06:54:40.437Z,44.00
2022-12-04T07:00:12.276Z,41.77
2022-12-04T07:05:47.269Z,40.43
2022-12-04T07:11:22.170Z,43.33
2022-12-04T07:16:59.194Z,39.80
2022-12-04T07:22:34.663Z,45.30
2022-12-04T07:28:04.107Z,41.67
2022-12-04T07:30:52.332Z,38.27
2022-12-04T07:36:21.469Z,34.70
2022-12-04T07:44:28.203Z,40.17
2022-12-04T07:50:09.401Z,42.63
2022-12-04T07:55:44.612Z,40.27
2022-12-04T07:58:32.869Z,40.67
2022-12-04T08:01:23.338Z,36.37
2022-12-04T08:04:19.909Z,39.57
2022-12-04T08:09:56.707Z,38.03
2022-12-04T08:15:32.264Z,36.47
2022-12-04T08:21:07.749Z,36.30
2022-12-04T08:26:49.832Z,34.33
2022-12-04T08:32:21.060Z,39.17
2022-12-04T08:35:10.154Z,43.07
2022-12-04T08:37:58.538Z,41.13
2022-12-04T08:40:47.875Z,41.03
2022-12-04T08:43:38.682Z,42.60
2022-12-04T08:49:16.579Z,41.73
2022-12-04T08:54:52.863Z,42.10
2022-12-04T08:57:41.114Z,44.97
2022-12-04T09:00:31.464Z,42.50
2022-12-04T09:03:26.104Z,46.90
2022-12-04T09:11:57.140Z,44.00
2022-12-04T09:17:33.453Z,38.33
2022-12-04T09:23:06.170Z,41.67
2022-12-04T09:28:41.259Z,44.70
2022-12-04T09:34:20.100Z,46.47
2022-12-04T09:37:10.769Z,44.57
2022-12-04T09:42:44.834Z,41.80
2022-12-04T09:48:23.880Z,41.47
2022-12-04T09:54:20.835Z,38.27
2022-12-04T10:00:19.396Z,38.73
2022-12-04T10:03:10.611Z,39.70
2022-12-04T10:06:02.764Z,41.73
2022-12-04T10:08:56.474Z,41.67
2022-12-04T10:17:56.533Z,43.80
2022-12-04T10:24:11.424Z,40.23
2022-12-04T10:27:02.470Z,39.50
2022-12-04T10:32:34.005Z,42.73
2022-12-04T10:38:06.834Z,44.00
2022-12-04T10:49:15.071Z,41.17
2022-12-04T10:54:52.546Z,36.50
2022-12-04T11:00:33.906Z,32.70
2022-12-04T11:03:28.554Z,35.40
2022-12-04T11:06:17.740Z,32.30
2022-12-04T11:14:46.758Z,31.57
2022-12-04T11:20:34.710Z,35.07
2022-12-04T11:23:26.505Z,30.87
2022-12-04T11:26:15.665Z,30.40
2022-12-04T11:31:54.779Z,33.70
2022-12-04T11:37:23.948Z,38.30
2022-12-04T11:40:19.982Z,35.40
2022-12-04T11:43:14.201Z,39.07
2022-12-04T11:48:47.854Z,36.73
2022-12-04T11:54:37.107Z,33.27
2022-12-04T12:03:13.183Z,33.47
2022-12-04T12:09:08.968Z,28.30
2022-12-04T12:14:46.263Z,30.53
2022-12-04T12:20:21.630Z,32.40
2022-12-04T12:23:26.633Z,30.80
2022-12-04T12:29:11.946Z,31.83
2022-12-04T12:35:00.466Z,30.90
2022-12-04T12:43:25.743Z,29.27
2022-12-04T12:49:12.882Z,28.10
2022-12-04T12:54:52.301Z,27.83
2022-12-04T13:00:32.964Z,29.33
2022-12-04T13:06:14.798Z,28.23
2022-12-04T13:14:30.987Z,30.27
2022-12-04T13:17:24.814Z,32.93
2022-12-04T13:20:18.070Z,34.53
2022-12-04T13:28:22.368Z,34.00
2022-12-04T13:37:04.415Z,41.23
2022-12-04T13:40:37.844Z,38.63
2022-12-04T13:46:30.119Z,39.60
2022-12-04T13:49:27.074Z,38.77
2022-12-04T13:52:25.114Z,40.13
2022-12-04T13:55:32.803Z,37.50
2022-12-04T13:58:30.369Z,34.17
2022-12-04T14:04:26.554Z,34.10
2022-12-04T14:10:09.766Z,30.93
2022-12-04T14:16:14.404Z,35.07
2022-12-04T14:21:49.435Z,30.33
2022-12-04T14:27:37.462Z,32.50
2022-12-04T14:33:32.255Z,31.37
2022-12-04T14:45:40.840Z,32.20
2022-12-04T14:51:38.893Z,55.40
2022-12-04T15:00:33.480Z,29.07
2022-12-04T15:06:36.534Z,29.33
2022-12-04T15:15:20.845Z,33.10
2022-12-04T15:21:01.736Z,35.57
2022-12-04T15:26:40.973Z,35.93
2022-12-04T15:32:17.632Z,35.30
2022-12-04T15:37:47.015Z,31.23
2022-12-04T15:40:35.937Z,32.03
2022-12-04T15:46:13.423Z,32.37
2022-12-04T15:55:00.488Z,33.60
2022-12-04T16:00:39.741Z,38.93
2022-12-04T16:06:21.604Z,33.23
2022-12-04T16:09:19.161Z,30.83
2022-12-04T16:12:18.896Z,36.87
2022-12-04T16:18:03.832Z,31.83
2022-12-04T16:20:52.153Z,31.97
2022-12-04T16:26:29.425Z,35.63
2022-12-04T16:29:17.763Z,30.97
2022-12-04T16:32:07.047Z,32.80
2022-12-04T16:37:42.923Z,31.17
2022-12-04T16:43:18.831Z,30.53
2022-12-04T16:46:07.513Z,28.77
2022-12-04T16:51:45.923Z,29.90
2022-12-04T16:57:25.161Z,29.50
2022-12-04T17:03:04.815Z,26.83
2022-12-04T17:08:39.472Z,26.33
2022-12-04T17:14:12.455Z,26.90
2022-12-04T17:19:48.922Z,22.83
2022-12-04T17:25:21.433Z,24.07
2022-12-04T17:30:56.154Z,26.17
2022-12-04T17:36:36.115Z,28.57
2022-12-04T17:42:10.790Z,24.17
2022-12-04T17:44:59.962Z,26.27
2022-12-04T17:50:34.671Z,27.07
2022-12-04T17:56:34.016Z,24.23
2022-12-04T17:59:22.371Z,26.87
2022-12-04T18:04:51.589Z,22.50
2022-12-04T18:10:22.350Z,23.83
2022-12-04T18:16:06.595Z,26.90
2022-12-04T18:18:55.514Z,29.40
2022-12-04T18:24:29.700Z,25.63
2022-12-04T18:30:03.339Z,22.43
2022-12-04T18:35:44.724Z,24.23
2022-12-04T18:38:33.460Z,24.53
2022-12-04T18:44:08.389Z,23.27
2022-12-04T18:56:04.866Z,24.23
2022-12-04T19:01:53.915Z,25.57
2022-12-04T19:07:43.113Z,21.80
2022-12-04T19:10:33.468Z,25.77
2022-12-04T19:16:03.767Z,21.27
2022-12-04T19:24:30.464Z,19.87
2022-12-04T19:30:03.623Z,21.03
2022-12-04T19:35:32.819Z,22.87
2022-12-04T19:41:26.716Z,22.23
2022-12-04T19:46:54.447Z,22.87
2022-12-04T19:52:25.956Z,21.70
2022-12-04T19:58:02.624Z,22.30
2022-12-04T20:04:03.660Z,18.17
2022-12-04T20:09:51.942Z,18.97
2022-12-04T20:18:00.117Z,19.13
2022-12-04T20:23:59.020Z,20.20
2022-12-04T20:26:52.732Z,22.03
2022-12-04T20:32:21.357Z,21.70
2022-12-04T20:35:11.215Z,22.30
2022-12-04T20:40:45.115Z,23.50
2022-12-04T20:43:35.319Z,19.87
2022-12-04T20:46:27.347Z,19.37
2022-12-04T20:49:22.042Z,20.70
2022-12-04T20:54:52.554Z,20.20
2022-12-04T21:00:20.040Z,19.80
2022-12-04T21:03:08.388Z,20.93
2022-12-04T21:08:54.704Z,18.57
2022-12-04T21:14:49.048Z,18.93
2022-12-04T21:20:16.785Z,19.33
2022-12-04T21:23:06.978Z,21.17
2022-12-04T21:25:57.658Z,20.93
2022-12-04T21:31:35.109Z,20.37
2022-12-04T21:37:07.944Z,21.20
2022-12-04T21:42:54.608Z,20.93
2022-12-04T21:48:32.844Z,22.13
2022-12-04T21:51:48.616Z,21.77
2022-12-04T21:57:01.123Z,21.63
2022-12-04T22:02:35.561Z,19.80
2022-12-04T22:08:09.503Z,20.37
2022-12-04T22:10:58.565Z,20.73
2022-12-04T22:16:43.279Z,20.33
2022-12-04T22:22:18.147Z,21.03
2022-12-04T22:25:08.124Z,22.30
2022-12-04T22:30:49.387Z,20.77
2022-12-04T22:36:21.091Z,18.90
2022-12-04T22:41:59.652Z,26.57
2022-12-04T22:44:48.630Z,23.53
2022-12-04T22:50:31.224Z,26.10
2022-12-04T22:53:28.359Z,25.37
2022-12-04T22:58:58.077Z,25.57
2022-12-04T23:04:29.934Z,26.37
2022-12-04T23:07:18.224Z,23.70
2022-12-04T23:10:08.719Z,23.33
2022-12-04T23:15:44.122Z,23.97
2022-12-04T23:21:22.288Z,24.37
2022-12-04T23:24:12.249Z,21.27
2022-12-04T23:27:00.909Z,20.87
2022-12-04T23:29:53.526Z,22.17
2022-12-04T23:35:27.720Z,18.87
2022-12-04T23:41:06.314Z,18.93
2022-12-04T23:46:43.579Z,19.00
2022-12-04T23:49:32.081Z,20.33
2022-12-04T23:57:50.603Z,20.40
